sensor_id;sensor_type;location;lat;lon;timestamp;P1;durP1;ratioP1;P2;durP2;ratioP2
76103;SDS011;64831;44.870;37.336;2024-02-21T00:00:36;7.00;;;3.20;;
76103;SDS011;64831;44.870;37.336;2024-02-21T00:03:03;8.07;;;3.90;;
76103;SDS011;64831;44.870;37.336;2024-02-21T00:05:30;8.02;;;3.03;;
76103;SDS011;64831;44.870;37.336;2024-02-21T00:07:57;8.88;;;4.47;;
76103;SDS011;64831;44.870;37.336;2024-02-21T00:10:24;10.02;;;3.60;;
76103;SDS011;64831;44.870;37.336;2024-02-21T00:12:51;11.10;;;4.53;;
76103;SDS011;64831;44.870;37.336;2024-02-21T00:15:17;4.68;;;2.13;;
76103;SDS011;64831;44.870;37.336;2024-02-21T00:17:44;13.63;;;4.68;;
76103;SDS011;64831;44.870;37.336;2024-02-21T00:20:10;7.65;;;3.42;;
76103;SDS011;64831;44.870;37.336;2024-02-21T00:22:37;5.50;;;3.30;;
76103;SDS011;64831;44.870;37.336;2024-02-21T00:25:03;8.82;;;4.15;;
76103;SDS011;64831;44.870;37.336;2024-02-21T00:27:29;10.95;;;4.72;;
76103;SDS011;64831;44.870;37.336;2024-02-21T00:29:56;7.20;;;4.00;;
76103;SDS011;64831;44.870;37.336;2024-02-21T00:32:22;10.02;;;4.35;;
76103;SDS011;64831;44.870;37.336;2024-02-21T00:34:48;8.65;;;4.47;;
76103;SDS011;64831;44.870;37.336;2024-02-21T00:37:14;10.45;;;3.80;;
76103;SDS011;64831;44.870;37.336;2024-02-21T00:39:40;11.82;;;4.88;;
76103;SDS011;64831;44.870;37.336;2024-02-21T00:42:07;15.15;;;5.88;;
76103;SDS011;64831;44.870;37.336;2024-02-21T00:44:33;13.82;;;5.05;;
76103;SDS011;64831;44.870;37.336;2024-02-21T00:46:59;14.23;;;5.22;;
76103;SDS011;64831;44.870;37.336;2024-02-21T00:49:25;9.23;;;4.18;;
76103;SDS011;64831;44.870;37.336;2024-02-21T00:51:51;12.07;;;5.13;;
76103;SDS011;64831;44.870;37.336;2024-02-21T00:54:17;9.63;;;4.78;;
76103;SDS011;64831;44.870;37.336;2024-02-21T00:56:43;11.55;;;4.47;;
76103;SDS011;64831;44.870;37.336;2024-02-21T00:59:09;7.93;;;3.95;;
76103;SDS011;64831;44.870;37.336;2024-02-21T01:01:35;11.70;;;5.70;;
76103;SDS011;64831;44.870;37.336;2024-02-21T01:04:01;11.13;;;5.13;;
76103;SDS011;64831;44.870;37.336;2024-02-21T01:06:27;14.07;;;6.15;;
76103;SDS011;64831;44.870;37.336;2024-02-21T01:08:53;12.48;;;4.97;;
76103;SDS011;64831;44.870;37.336;2024-02-21T01:11:19;11.55;;;4.50;;
76103;SDS011;64831;44.870;37.336;2024-02-21T01:13:45;13.45;;;4.85;;
76103;SDS011;64831;44.870;37.336;2024-02-21T01:16:11;11.95;;;5.07;;
76103;SDS011;64831;44.870;37.336;2024-02-21T01:18:37;14.30;;;5.78;;
76103;SDS011;64831;44.870;37.336;2024-02-21T01:21:04;13.98;;;6.43;;
76103;SDS011;64831;44.870;37.336;2024-02-21T01:23:35;9.65;;;4.72;;
76103;SDS011;64831;44.870;37.336;2024-02-21T01:26:02;9.88;;;4.13;;
76103;SDS011;64831;44.870;37.336;2024-02-21T01:28:29;14.55;;;5.20;;
76103;SDS011;64831;44.870;37.336;2024-02-21T01:30:56;14.85;;;5.53;;
76103;SDS011;64831;44.870;37.336;2024-02-21T01:33:22;10.80;;;5.00;;
76103;SDS011;64831;44.870;37.336;2024-02-21T01:35:48;12.25;;;5.30;;
76103;SDS011;64831;44.870;37.336;2024-02-21T01:38:15;15.48;;;4.75;;
76103;SDS011;64831;44.870;37.336;2024-02-21T01:40:41;4.68;;;2.53;;
76103;SDS011;64831;44.870;37.336;2024-02-21T01:43:17;15.68;;;6.35;;
76103;SDS011;64831;44.870;37.336;2024-02-21T01:45:48;17.33;;;6.18;;
76103;SDS011;64831;44.870;37.336;2024-02-21T01:48:18;11.73;;;4.80;;
76103;SDS011;64831;44.870;37.336;2024-02-21T01:50:45;2.80;;;1.90;;
76103;SDS011;64831;44.870;37.336;2024-02-21T01:53:19;8.55;;;3.75;;
76103;SDS011;64831;44.870;37.336;2024-02-21T01:55:46;11.30;;;5.85;;
76103;SDS011;64831;44.870;37.336;2024-02-21T01:58:16;9.15;;;3.88;;
76103;SDS011;64831;44.870;37.336;2024-02-21T02:00:42;10.65;;;4.57;;
76103;SDS011;64831;44.870;37.336;2024-02-21T02:03:12;11.85;;;4.82;;
76103;SDS011;64831;44.870;37.336;2024-02-21T02:05:45;7.18;;;4.30;;
76103;SDS011;64831;44.870;37.336;2024-02-21T02:08:12;12.13;;;4.80;;
76103;SDS011;64831;44.870;37.336;2024-02-21T02:10:39;7.60;;;3.78;;
76103;SDS011;64831;44.870;37.336;2024-02-21T02:13:06;8.93;;;3.47;;
76103;SDS011;64831;44.870;37.336;2024-02-21T02:15:42;4.20;;;2.58;;
76103;SDS011;64831;44.870;37.336;2024-02-21T02:18:09;13.27;;;5.22;;
76103;SDS011;64831;44.870;37.336;2024-02-21T02:20:36;12.95;;;6.28;;
76103;SDS011;64831;44.870;37.336;2024-02-21T02:23:12;9.40;;;4.82;;
76103;SDS011;64831;44.870;37.336;2024-02-21T02:25:47;10.23;;;5.30;;
76103;SDS011;64831;44.870;37.336;2024-02-21T02:28:19;10.40;;;4.18;;
76103;SDS011;64831;44.870;37.336;2024-02-21T02:30:46;15.18;;;5.00;;
76103;SDS011;64831;44.870;37.336;2024-02-21T02:33:13;11.70;;;3.92;;
76103;SDS011;64831;44.870;37.336;2024-02-21T02:35:39;10.90;;;5.35;;
76103;SDS011;64831;44.870;37.336;2024-02-21T02:38:05;6.22;;;3.53;;
76103;SDS011;64831;44.870;37.336;2024-02-21T02:40:33;14.43;;;5.80;;
76103;SDS011;64831;44.870;37.336;2024-02-21T02:43:00;16.60;;;5.85;;
76103;SDS011;64831;44.870;37.336;2024-02-21T02:45:26;14.15;;;5.88;;
76103;SDS011;64831;44.870;37.336;2024-02-21T02:47:52;13.98;;;5.45;;
76103;SDS011;64831;44.870;37.336;2024-02-21T02:50:22;17.52;;;6.40;;
76103;SDS011;64831;44.870;37.336;2024-02-21T02:52:49;6.68;;;3.80;;
76103;SDS011;64831;44.870;37.336;2024-02-21T02:55:15;4.95;;;2.55;;
76103;SDS011;64831;44.870;37.336;2024-02-21T02:57:41;13.85;;;5.53;;
76103;SDS011;64831;44.870;37.336;2024-02-21T03:00:07;10.98;;;4.82;;
76103;SDS011;64831;44.870;37.336;2024-02-21T03:02:37;10.95;;;3.42;;
76103;SDS011;64831;44.870;37.336;2024-02-21T03:05:11;9.85;;;3.80;;
76103;SDS011;64831;44.870;37.336;2024-02-21T03:07:38;17.85;;;6.40;;
76103;SDS011;64831;44.870;37.336;2024-02-21T03:10:04;14.68;;;5.30;;
76103;SDS011;64831;44.870;37.336;2024-02-21T03:12:31;12.35;;;5.13;;
76103;SDS011;64831;44.870;37.336;2024-02-21T03:14:56;12.02;;;4.80;;
76103;SDS011;64831;44.870;37.336;2024-02-21T03:17:22;16.45;;;6.88;;
76103;SDS011;64831;44.870;37.336;2024-02-21T03:19:48;8.35;;;3.67;;
76103;SDS011;64831;44.870;37.336;2024-02-21T03:22:15;4.90;;;2.63;;
76103;SDS011;64831;44.870;37.336;2024-02-21T03:24:41;20.00;;;7.07;;
76103;SDS011;64831;44.870;37.336;2024-02-21T03:27:08;12.88;;;5.15;;
76103;SDS011;64831;44.870;37.336;2024-02-21T03:29:33;13.10;;;6.15;;
76103;SDS011;64831;44.870;37.336;2024-02-21T03:31:59;19.05;;;7.18;;
76103;SDS011;64831;44.870;37.336;2024-02-21T03:34:25;13.98;;;5.68;;
76103;SDS011;64831;44.870;37.336;2024-02-21T03:36:51;13.65;;;5.85;;
76103;SDS011;64831;44.870;37.336;2024-02-21T03:39:17;17.08;;;6.80;;
76103;SDS011;64831;44.870;37.336;2024-02-21T03:41:43;16.67;;;6.00;;
76103;SDS011;64831;44.870;37.336;2024-02-21T03:44:09;24.75;;;7.30;;
76103;SDS011;64831;44.870;37.336;2024-02-21T03:46:35;12.00;;;4.45;;
76103;SDS011;64831;44.870;37.336;2024-02-21T03:49:01;18.02;;;6.82;;
76103;SDS011;64831;44.870;37.336;2024-02-21T03:51:27;20.67;;;7.15;;
76103;SDS011;64831;44.870;37.336;2024-02-21T03:53:53;18.60;;;6.43;;
76103;SDS011;64831;44.870;37.336;2024-02-21T03:56:19;16.92;;;5.10;;
76103;SDS011;64831;44.870;37.336;2024-02-21T03:58:45;22.70;;;6.82;;
76103;SDS011;64831;44.870;37.336;2024-02-21T04:01:11;15.88;;;5.60;;
76103;SDS011;64831;44.870;37.336;2024-02-21T04:03:37;19.50;;;7.63;;
76103;SDS011;64831;44.870;37.336;2024-02-21T04:06:03;15.35;;;5.60;;
76103;SDS011;64831;44.870;37.336;2024-02-21T04:08:29;12.73;;;5.13;;
76103;SDS011;64831;44.870;37.336;2024-02-21T04:10:56;12.63;;;4.22;;
76103;SDS011;64831;44.870;37.336;2024-02-21T04:13:21;15.02;;;6.00;;
76103;SDS011;64831;44.870;37.336;2024-02-21T04:15:48;9.57;;;3.10;;
76103;SDS011;64831;44.870;37.336;2024-02-21T04:18:14;13.15;;;4.93;;
76103;SDS011;64831;44.870;37.336;2024-02-21T04:20:40;14.18;;;4.57;;
76103;SDS011;64831;44.870;37.336;2024-02-21T04:23:06;14.32;;;5.63;;
76103;SDS011;64831;44.870;37.336;2024-02-21T04:25:32;27.75;;;7.40;;
76103;SDS011;64831;44.870;37.336;2024-02-21T04:27:58;21.25;;;7.05;;
76103;SDS011;64831;44.870;37.336;2024-02-21T04:30:24;15.07;;;6.22;;
76103;SDS011;64831;44.870;37.336;2024-02-21T04:32:50;19.73;;;7.50;;
76103;SDS011;64831;44.870;37.336;2024-02-21T04:35:16;17.52;;;6.65;;
76103;SDS011;64831;44.870;37.336;2024-02-21T04:37:42;13.35;;;4.60;;
76103;SDS011;64831;44.870;37.336;2024-02-21T04:40:08;14.27;;;5.80;;
76103;SDS011;64831;44.870;37.336;2024-02-21T04:42:34;18.90;;;7.70;;
76103;SDS011;64831;44.870;37.336;2024-02-21T04:45:00;21.30;;;7.43;;
76103;SDS011;64831;44.870;37.336;2024-02-21T04:47:27;16.52;;;6.95;;
76103;SDS011;64831;44.870;37.336;2024-02-21T04:49:53;24.85;;;7.07;;
76103;SDS011;64831;44.870;37.336;2024-02-21T04:52:19;17.85;;;6.13;;
76103;SDS011;64831;44.870;37.336;2024-02-21T04:54:45;16.77;;;5.47;;
76103;SDS011;64831;44.870;37.336;2024-02-21T04:57:11;25.30;;;7.53;;
76103;SDS011;64831;44.870;37.336;2024-02-21T04:59:44;18.95;;;7.00;;
76103;SDS011;64831;44.870;37.336;2024-02-21T05:02:15;14.80;;;5.72;;
76103;SDS011;64831;44.870;37.336;2024-02-21T05:04:44;19.88;;;7.22;;
76103;SDS011;64831;44.870;37.336;2024-02-21T05:07:10;12.70;;;5.20;;
76103;SDS011;64831;44.870;37.336;2024-02-21T05:09:37;15.10;;;6.78;;
76103;SDS011;64831;44.870;37.336;2024-02-21T05:12:03;14.32;;;5.10;;
76103;SDS011;64831;44.870;37.336;2024-02-21T05:14:29;23.10;;;8.13;;
76103;SDS011;64831;44.870;37.336;2024-02-21T05:16:55;24.52;;;7.75;;
76103;SDS011;64831;44.870;37.336;2024-02-21T05:19:21;20.90;;;7.85;;
76103;SDS011;64831;44.870;37.336;2024-02-21T05:21:47;5.93;;;2.90;;
76103;SDS011;64831;44.870;37.336;2024-02-21T05:24:13;19.55;;;7.25;;
76103;SDS011;64831;44.870;37.336;2024-02-21T05:26:39;18.20;;;7.00;;
76103;SDS011;64831;44.870;37.336;2024-02-21T05:29:05;27.75;;;8.98;;
76103;SDS011;64831;44.870;37.336;2024-02-21T05:31:43;20.17;;;7.53;;
76103;SDS011;64831;44.870;37.336;2024-02-21T05:34:20;40.72;;;7.65;;
76103;SDS011;64831;44.870;37.336;2024-02-21T05:36:47;21.05;;;7.45;;
76103;SDS011;64831;44.870;37.336;2024-02-21T05:39:15;15.18;;;6.57;;
76103;SDS011;64831;44.870;37.336;2024-02-21T05:41:41;16.08;;;5.65;;
76103;SDS011;64831;44.870;37.336;2024-02-21T05:44:07;6.88;;;3.00;;
76103;SDS011;64831;44.870;37.336;2024-02-21T05:46:34;8.20;;;3.95;;
76103;SDS011;64831;44.870;37.336;2024-02-21T05:49:00;9.07;;;3.95;;
76103;SDS011;64831;44.870;37.336;2024-02-21T05:51:26;12.20;;;4.97;;
76103;SDS011;64831;44.870;37.336;2024-02-21T05:53:52;12.50;;;6.65;;
76103;SDS011;64831;44.870;37.336;2024-02-21T05:56:18;16.27;;;6.30;;
76103;SDS011;64831;44.870;37.336;2024-02-21T05:58:44;11.65;;;5.07;;
76103;SDS011;64831;44.870;37.336;2024-02-21T06:01:11;12.18;;;5.93;;
76103;SDS011;64831;44.870;37.336;2024-02-21T06:03:37;8.13;;;3.72;;
76103;SDS011;64831;44.870;37.336;2024-02-21T06:06:03;6.43;;;3.03;;
76103;SDS011;64831;44.870;37.336;2024-02-21T06:08:30;16.65;;;6.25;;
76103;SDS011;64831;44.870;37.336;2024-02-21T06:10:56;9.57;;;3.88;;
76103;SDS011;64831;44.870;37.336;2024-02-21T06:13:23;7.72;;;3.33;;
76103;SDS011;64831;44.870;37.336;2024-02-21T06:15:50;12.40;;;4.43;;
76103;SDS011;64831;44.870;37.336;2024-02-21T06:18:19;12.35;;;5.43;;
76103;SDS011;64831;44.870;37.336;2024-02-21T06:20:46;5.00;;;3.05;;
76103;SDS011;64831;44.870;37.336;2024-02-21T06:23:12;15.30;;;6.07;;
76103;SDS011;64831;44.870;37.336;2024-02-21T06:25:40;10.85;;;4.03;;
76103;SDS011;64831;44.870;37.336;2024-02-21T06:28:06;12.95;;;4.72;;
76103;SDS011;64831;44.870;37.336;2024-02-21T06:30:32;15.65;;;6.20;;
76103;SDS011;64831;44.870;37.336;2024-02-21T06:32:58;17.90;;;6.20;;
76103;SDS011;64831;44.870;37.336;2024-02-21T06:35:25;15.30;;;5.53;;
76103;SDS011;64831;44.870;37.336;2024-02-21T06:37:51;15.35;;;5.57;;
76103;SDS011;64831;44.870;37.336;2024-02-21T06:40:21;19.08;;;7.25;;
76103;SDS011;64831;44.870;37.336;2024-02-21T06:42:48;12.35;;;4.80;;
76103;SDS011;64831;44.870;37.336;2024-02-21T06:45:14;18.95;;;5.95;;
76103;SDS011;64831;44.870;37.336;2024-02-21T06:47:41;12.60;;;5.00;;
76103;SDS011;64831;44.870;37.336;2024-02-21T06:50:07;5.53;;;2.72;;
76103;SDS011;64831;44.870;37.336;2024-02-21T06:52:34;9.27;;;4.57;;
76103;SDS011;64831;44.870;37.336;2024-02-21T06:55:00;5.80;;;3.40;;
76103;SDS011;64831;44.870;37.336;2024-02-21T06:57:26;14.05;;;4.90;;
76103;SDS011;64831;44.870;37.336;2024-02-21T06:59:53;9.23;;;3.08;;
76103;SDS011;64831;44.870;37.336;2024-02-21T07:02:19;10.35;;;3.75;;
76103;SDS011;64831;44.870;37.336;2024-02-21T07:04:45;8.30;;;3.22;;
76103;SDS011;64831;44.870;37.336;2024-02-21T07:07:11;13.80;;;5.50;;
76103;SDS011;64831;44.870;37.336;2024-02-21T07:09:38;14.50;;;5.38;;
76103;SDS011;64831;44.870;37.336;2024-02-21T07:12:04;8.70;;;3.72;;
76103;SDS011;64831;44.870;37.336;2024-02-21T07:14:33;14.45;;;5.40;;
76103;SDS011;64831;44.870;37.336;2024-02-21T07:19:26;15.20;;;6.20;;
76103;SDS011;64831;44.870;37.336;2024-02-21T07:21:52;12.48;;;4.65;;
76103;SDS011;64831;44.870;37.336;2024-02-21T07:24:18;4.93;;;2.72;;
76103;SDS011;64831;44.870;37.336;2024-02-21T07:26:44;6.45;;;3.38;;
76103;SDS011;64831;44.870;37.336;2024-02-21T07:29:10;9.68;;;3.75;;
76103;SDS011;64831;44.870;37.336;2024-02-21T07:31:42;8.05;;;3.88;;
76103;SDS011;64831;44.870;37.336;2024-02-21T07:34:09;11.48;;;4.10;;
76103;SDS011;64831;44.870;37.336;2024-02-21T07:36:35;9.13;;;4.88;;
76103;SDS011;64831;44.870;37.336;2024-02-21T07:39:03;9.82;;;4.78;;
76103;SDS011;64831;44.870;37.336;2024-02-21T07:41:30;8.00;;;4.25;;
76103;SDS011;64831;44.870;37.336;2024-02-21T07:43:56;4.60;;;2.70;;
76103;SDS011;64831;44.870;37.336;2024-02-21T07:46:23;6.15;;;2.85;;
76103;SDS011;64831;44.870;37.336;2024-02-21T07:48:50;4.43;;;2.80;;
76103;SDS011;64831;44.870;37.336;2024-02-21T07:51:16;7.03;;;3.15;;
76103;SDS011;64831;44.870;37.336;2024-02-21T07:53:43;6.55;;;3.50;;
76103;SDS011;64831;44.870;37.336;2024-02-21T07:56:11;5.65;;;2.85;;
76103;SDS011;64831;44.870;37.336;2024-02-21T07:58:37;5.72;;;2.42;;
76103;SDS011;64831;44.870;37.336;2024-02-21T08:01:03;4.28;;;2.55;;
76103;SDS011;64831;44.870;37.336;2024-02-21T08:03:29;5.40;;;3.30;;
76103;SDS011;64831;44.870;37.336;2024-02-21T08:05:55;4.28;;;2.47;;
76103;SDS011;64831;44.870;37.336;2024-02-21T08:08:21;4.15;;;2.30;;
76103;SDS011;64831;44.870;37.336;2024-02-21T08:10:48;4.63;;;2.05;;
76103;SDS011;64831;44.870;37.336;2024-02-21T08:13:14;4.82;;;2.40;;
76103;SDS011;64831;44.870;37.336;2024-02-21T08:15:40;4.28;;;2.17;;
76103;SDS011;64831;44.870;37.336;2024-02-21T08:18:07;4.32;;;2.65;;
76103;SDS011;64831;44.870;37.336;2024-02-21T08:20:33;4.50;;;2.80;;
76103;SDS011;64831;44.870;37.336;2024-02-21T08:23:00;4.13;;;2.28;;
76103;SDS011;64831;44.870;37.336;2024-02-21T08:25:26;6.75;;;1.77;;
76103;SDS011;64831;44.870;37.336;2024-02-21T08:27:55;5.07;;;2.80;;
76103;SDS011;64831;44.870;37.336;2024-02-21T08:30:23;2.63;;;2.03;;
76103;SDS011;64831;44.870;37.336;2024-02-21T08:32:49;3.83;;;2.47;;
76103;SDS011;64831;44.870;37.336;2024-02-21T08:35:15;10.20;;;2.88;;
76103;SDS011;64831;44.870;37.336;2024-02-21T08:37:44;5.13;;;3.00;;
76103;SDS011;64831;44.870;37.336;2024-02-21T08:40:13;4.38;;;2.35;;
76103;SDS011;64831;44.870;37.336;2024-02-21T08:42:43;2.83;;;1.95;;
76103;SDS011;64831;44.870;37.336;2024-02-21T08:45:09;6.00;;;2.92;;
76103;SDS011;64831;44.870;37.336;2024-02-21T08:47:36;5.32;;;3.00;;
76103;SDS011;64831;44.870;37.336;2024-02-21T08:50:04;6.75;;;3.70;;
76103;SDS011;64831;44.870;37.336;2024-02-21T08:52:31;3.70;;;2.03;;
76103;SDS011;64831;44.870;37.336;2024-02-21T08:54:57;7.82;;;3.92;;
76103;SDS011;64831;44.870;37.336;2024-02-21T08:57:23;6.30;;;3.05;;
76103;SDS011;64831;44.870;37.336;2024-02-21T08:59:49;5.63;;;2.47;;
76103;SDS011;64831;44.870;37.336;2024-02-21T09:02:15;7.15;;;3.92;;
76103;SDS011;64831;44.870;37.336;2024-02-21T09:04:44;5.72;;;2.70;;
76103;SDS011;64831;44.870;37.336;2024-02-21T09:07:10;4.28;;;2.78;;
76103;SDS011;64831;44.870;37.336;2024-02-21T09:09:36;4.80;;;2.72;;
76103;SDS011;64831;44.870;37.336;2024-02-21T09:12:06;3.25;;;1.88;;
76103;SDS011;64831;44.870;37.336;2024-02-21T09:14:33;2.65;;;1.63;;
76103;SDS011;64831;44.870;37.336;2024-02-21T09:16:59;13.05;;;5.80;;
76103;SDS011;64831;44.870;37.336;2024-02-21T09:19:25;5.38;;;2.33;;
76103;SDS011;64831;44.870;37.336;2024-02-21T09:21:51;18.48;;;2.80;;
76103;SDS011;64831;44.870;37.336;2024-02-21T09:24:17;8.98;;;2.97;;
76103;SDS011;64831;44.870;37.336;2024-02-21T09:26:43;5.15;;;2.13;;
76103;SDS011;64831;44.870;37.336;2024-02-21T09:29:09;6.78;;;3.65;;
76103;SDS011;64831;44.870;37.336;2024-02-21T09:31:35;8.05;;;3.65;;
76103;SDS011;64831;44.870;37.336;2024-02-21T09:34:01;4.65;;;2.90;;
76103;SDS011;64831;44.870;37.336;2024-02-21T09:36:27;5.40;;;3.13;;
76103;SDS011;64831;44.870;37.336;2024-02-21T09:38:53;8.75;;;3.75;;
76103;SDS011;64831;44.870;37.336;2024-02-21T09:41:26;5.32;;;2.65;;
76103;SDS011;64831;44.870;37.336;2024-02-21T09:43:55;2.78;;;1.92;;
76103;SDS011;64831;44.870;37.336;2024-02-21T09:46:56;4.88;;;2.88;;
76103;SDS011;64831;44.870;37.336;2024-02-21T09:49:32;3.85;;;2.53;;
76103;SDS011;64831;44.870;37.336;2024-02-21T09:52:01;10.18;;;3.50;;
76103;SDS011;64831;44.870;37.336;2024-02-21T09:54:29;6.03;;;2.72;;
76103;SDS011;64831;44.870;37.336;2024-02-21T09:57:05;4.85;;;2.22;;
76103;SDS011;64831;44.870;37.336;2024-02-21T09:59:32;4.80;;;2.78;;
76103;SDS011;64831;44.870;37.336;2024-02-21T10:01:58;9.35;;;3.28;;
76103;SDS011;64831;44.870;37.336;2024-02-21T10:04:25;6.38;;;2.58;;
76103;SDS011;64831;44.870;37.336;2024-02-21T10:06:53;6.43;;;3.72;;
76103;SDS011;64831;44.870;37.336;2024-02-21T10:09:28;3.33;;;2.00;;
76103;SDS011;64831;44.870;37.336;2024-02-21T10:11:54;2.22;;;1.25;;
76103;SDS011;64831;44.870;37.336;2024-02-21T10:14:21;6.20;;;2.60;;
76103;SDS011;64831;44.870;37.336;2024-02-21T10:16:48;4.40;;;2.47;;
76103;SDS011;64831;44.870;37.336;2024-02-21T10:19:21;9.40;;;2.97;;
76103;SDS011;64831;44.870;37.336;2024-02-21T10:22:03;4.20;;;2.58;;
76103;SDS011;64831;44.870;37.336;2024-02-21T10:24:33;2.13;;;1.70;;
76103;SDS011;64831;44.870;37.336;2024-02-21T10:27:03;6.47;;;2.63;;
76103;SDS011;64831;44.870;37.336;2024-02-21T10:29:31;3.40;;;2.08;;
76103;SDS011;64831;44.870;37.336;2024-02-21T10:32:03;6.45;;;2.35;;
76103;SDS011;64831;44.870;37.336;2024-02-21T10:34:40;12.90;;;3.22;;
76103;SDS011;64831;44.870;37.336;2024-02-21T10:37:08;5.78;;;2.33;;
76103;SDS011;64831;44.870;37.336;2024-02-21T10:39:35;5.10;;;2.53;;
76103;SDS011;64831;44.870;37.336;2024-02-21T10:42:03;4.93;;;2.33;;
76103;SDS011;64831;44.870;37.336;2024-02-21T10:44:34;4.10;;;1.70;;
76103;SDS011;64831;44.870;37.336;2024-02-21T10:47:09;3.85;;;2.65;;
76103;SDS011;64831;44.870;37.336;2024-02-21T10:49:37;5.47;;;3.28;;
76103;SDS011;64831;44.870;37.336;2024-02-21T10:52:37;2.85;;;1.98;;
76103;SDS011;64831;44.870;37.336;2024-02-21T10:55:20;5.97;;;2.67;;
76103;SDS011;64831;44.870;37.336;2024-02-21T10:57:57;3.92;;;2.15;;
76103;SDS011;64831;44.870;37.336;2024-02-21T11:00:24;4.70;;;2.55;;
76103;SDS011;64831;44.870;37.336;2024-02-21T11:02:56;6.13;;;2.33;;
76103;SDS011;64831;44.870;37.336;2024-02-21T11:05:24;7.45;;;2.90;;
76103;SDS011;64831;44.870;37.336;2024-02-21T11:07:50;6.50;;;3.40;;
76103;SDS011;64831;44.870;37.336;2024-02-21T11:10:20;3.67;;;2.22;;
76103;SDS011;64831;44.870;37.336;2024-02-21T11:12:52;8.20;;;3.85;;
76103;SDS011;64831;44.870;37.336;2024-02-21T11:15:24;7.65;;;3.17;;
76103;SDS011;64831;44.870;37.336;2024-02-21T11:17:55;8.23;;;3.28;;
76103;SDS011;64831;44.870;37.336;2024-02-21T11:20:31;4.65;;;2.22;;
76103;SDS011;64831;44.870;37.336;2024-02-21T11:22:58;7.68;;;2.80;;
76103;SDS011;64831;44.870;37.336;2024-02-21T11:25:24;3.53;;;2.55;;
76103;SDS011;64831;44.870;37.336;2024-02-21T11:27:58;6.60;;;3.25;;
76103;SDS011;64831;44.870;37.336;2024-02-21T11:30:32;2.85;;;1.95;;
76103;SDS011;64831;44.870;37.336;2024-02-21T11:33:05;6.68;;;3.00;;
76103;SDS011;64831;44.870;37.336;2024-02-21T11:35:33;9.35;;;4.43;;
76103;SDS011;64831;44.870;37.336;2024-02-21T11:38:12;3.78;;;2.00;;
76103;SDS011;64831;44.870;37.336;2024-02-21T11:40:43;3.63;;;1.60;;
76103;SDS011;64831;44.870;37.336;2024-02-21T11:43:11;5.40;;;1.70;;
76103;SDS011;64831;44.870;37.336;2024-02-21T11:45:38;6.68;;;3.25;;
76103;SDS011;64831;44.870;37.336;2024-02-21T11:48:07;14.63;;;3.30;;
76103;SDS011;64831;44.870;37.336;2024-02-21T11:50:34;8.57;;;3.70;;
76103;SDS011;64831;44.870;37.336;2024-02-21T11:53:01;8.32;;;3.35;;
76103;SDS011;64831;44.870;37.336;2024-02-21T11:55:28;5.53;;;2.88;;
76103;SDS011;64831;44.870;37.336;2024-02-21T11:57:55;8.68;;;4.38;;
76103;SDS011;64831;44.870;37.336;2024-02-21T12:00:21;9.52;;;3.33;;
76103;SDS011;64831;44.870;37.336;2024-02-21T12:02:47;7.85;;;3.35;;
76103;SDS011;64831;44.870;37.336;2024-02-21T12:05:15;9.38;;;3.65;;
76103;SDS011;64831;44.870;37.336;2024-02-21T12:07:41;3.00;;;1.80;;
76103;SDS011;64831;44.870;37.336;2024-02-21T12:10:11;4.30;;;2.30;;
76103;SDS011;64831;44.870;37.336;2024-02-21T12:12:37;5.82;;;2.08;;
76103;SDS011;64831;44.870;37.336;2024-02-21T12:15:04;5.70;;;2.97;;
76103;SDS011;64831;44.870;37.336;2024-02-21T12:17:34;8.90;;;2.08;;
76103;SDS011;64831;44.870;37.336;2024-02-21T12:20:05;7.75;;;3.45;;
76103;SDS011;64831;44.870;37.336;2024-02-21T12:22:36;7.40;;;3.30;;
76103;SDS011;64831;44.870;37.336;2024-02-21T12:25:16;4.57;;;2.45;;
76103;SDS011;64831;44.870;37.336;2024-02-21T12:27:44;7.28;;;4.03;;
76103;SDS011;64831;44.870;37.336;2024-02-21T12:30:11;14.30;;;4.68;;
76103;SDS011;64831;44.870;37.336;2024-02-21T12:32:37;11.43;;;5.18;;
76103;SDS011;64831;44.870;37.336;2024-02-21T12:35:03;17.70;;;5.57;;
76103;SDS011;64831;44.870;37.336;2024-02-21T12:37:29;12.55;;;6.10;;
76103;SDS011;64831;44.870;37.336;2024-02-21T12:39:55;11.65;;;5.13;;
76103;SDS011;64831;44.870;37.336;2024-02-21T12:42:21;12.05;;;5.70;;
76103;SDS011;64831;44.870;37.336;2024-02-21T12:44:49;9.88;;;4.60;;
76103;SDS011;64831;44.870;37.336;2024-02-21T12:47:15;18.58;;;5.70;;
76103;SDS011;64831;44.870;37.336;2024-02-21T12:49:41;8.50;;;4.28;;
76103;SDS011;64831;44.870;37.336;2024-02-21T12:52:07;12.52;;;4.65;;
76103;SDS011;64831;44.870;37.336;2024-02-21T12:54:33;5.90;;;3.28;;
76103;SDS011;64831;44.870;37.336;2024-02-21T12:56:59;8.85;;;3.58;;
76103;SDS011;64831;44.870;37.336;2024-02-21T12:59:28;11.52;;;3.97;;
76103;SDS011;64831;44.870;37.336;2024-02-21T13:01:55;3.38;;;2.28;;
76103;SDS011;64831;44.870;37.336;2024-02-21T13:04:21;5.78;;;2.47;;
76103;SDS011;64831;44.870;37.336;2024-02-21T13:06:48;21.73;;;4.15;;
76103;SDS011;64831;44.870;37.336;2024-02-21T13:09:14;14.98;;;6.03;;
76103;SDS011;64831;44.870;37.336;2024-02-21T13:11:41;14.50;;;5.70;;
76103;SDS011;64831;44.870;37.336;2024-02-21T13:14:10;4.33;;;2.70;;
76103;SDS011;64831;44.870;37.336;2024-02-21T13:16:36;9.32;;;4.60;;
76103;SDS011;64831;44.870;37.336;2024-02-21T13:19:05;8.35;;;3.90;;
76103;SDS011;64831;44.870;37.336;2024-02-21T13:21:31;11.55;;;4.45;;
76103;SDS011;64831;44.870;37.336;2024-02-21T13:23:57;9.75;;;4.80;;
76103;SDS011;64831;44.870;37.336;2024-02-21T13:26:23;14.85;;;4.95;;
76103;SDS011;64831;44.870;37.336;2024-02-21T13:28:49;11.43;;;5.30;;
76103;SDS011;64831;44.870;37.336;2024-02-21T13:31:15;12.52;;;5.45;;
76103;SDS011;64831;44.870;37.336;2024-02-21T13:33:44;12.80;;;5.03;;
76103;SDS011;64831;44.870;37.336;2024-02-21T13:36:10;13.52;;;5.63;;
76103;SDS011;64831;44.870;37.336;2024-02-21T13:38:36;11.07;;;4.75;;
76103;SDS011;64831;44.870;37.336;2024-02-21T13:41:06;16.85;;;4.25;;
76103;SDS011;64831;44.870;37.336;2024-02-21T13:43:33;8.43;;;4.55;;
76103;SDS011;64831;44.870;37.336;2024-02-21T13:46:00;8.73;;;4.18;;
76103;SDS011;64831;44.870;37.336;2024-02-21T13:48:30;11.18;;;3.63;;
76103;SDS011;64831;44.870;37.336;2024-02-21T13:50:56;9.07;;;4.00;;
76103;SDS011;64831;44.870;37.336;2024-02-21T13:53:22;11.48;;;4.38;;
76103;SDS011;64831;44.870;37.336;2024-02-21T13:55:48;8.05;;;3.47;;
76103;SDS011;64831;44.870;37.336;2024-02-21T13:58:15;6.57;;;2.92;;
76103;SDS011;64831;44.870;37.336;2024-02-21T14:00:41;13.55;;;4.53;;
76103;SDS011;64831;44.870;37.336;2024-02-21T14:03:07;11.23;;;4.43;;
76103;SDS011;64831;44.870;37.336;2024-02-21T14:05:33;9.52;;;4.60;;
76103;SDS011;64831;44.870;37.336;2024-02-21T14:07:59;9.43;;;3.75;;
76103;SDS011;64831;44.870;37.336;2024-02-21T14:10:25;8.60;;;4.00;;
76103;SDS011;64831;44.870;37.336;2024-02-21T14:12:51;11.85;;;4.78;;
76103;SDS011;64831;44.870;37.336;2024-02-21T14:15:17;16.75;;;4.18;;
76103;SDS011;64831;44.870;37.336;2024-02-21T14:17:43;6.88;;;3.38;;
76103;SDS011;64831;44.870;37.336;2024-02-21T14:20:09;10.40;;;4.50;;
76103;SDS011;64831;44.870;37.336;2024-02-21T14:22:35;8.45;;;3.08;;
76103;SDS011;64831;44.870;37.336;2024-02-21T14:25:03;10.00;;;4.68;;
76103;SDS011;64831;44.870;37.336;2024-02-21T14:27:32;12.25;;;4.45;;
76103;SDS011;64831;44.870;37.336;2024-02-21T14:29:58;9.30;;;4.00;;
76103;SDS011;64831;44.870;37.336;2024-02-21T14:32:24;10.30;;;4.97;;